sensor_id;sensor_type;location;lat;lon;timestamp;temperature;humidity
49032;DHT22;63443;48.366;10.876;2022-09-27T00:00:34;13.00;91.70
49032;DHT22;63443;48.366;10.876;2022-09-27T00:03:00;12.90;91.60
49032;DHT22;63443;48.366;10.876;2022-09-27T00:05:26;12.90;91.40
49032;DHT22;63443;48.366;10.876;2022-09-27T00:07:51;12.90;91.80
49032;DHT22;63443;48.366;10.876;2022-09-27T00:10:17;12.90;91.80
49032;DHT22;63443;48.366;10.876;2022-09-27T00:12:43;12.90;91.90
49032;DHT22;63443;48.366;10.876;2022-09-27T00:15:09;13.00;91.90
49032;DHT22;63443;48.366;10.876;2022-09-27T00:17:37;13.00;92.00
49032;DHT22;63443;48.366;10.876;2022-09-27T00:20:04;12.90;92.10
49032;DHT22;63443;48.366;10.876;2022-09-27T00:22:30;12.90;92.50
49032;DHT22;63443;48.366;10.876;2022-09-27T00:24:57;12.90;92.80
49032;DHT22;63443;48.366;10.876;2022-09-27T00:27:24;12.90;92.90
49032;DHT22;63443;48.366;10.876;2022-09-27T00:29:50;12.80;93.40
49032;DHT22;63443;48.366;10.876;2022-09-27T00:32:16;12.80;93.60
49032;DHT22;63443;48.366;10.876;2022-09-27T00:34:42;12.80;93.70
49032;DHT22;63443;48.366;10.876;2022-09-27T00:37:09;12.70;94.00
49032;DHT22;63443;48.366;10.876;2022-09-27T00:39:36;12.70;94.10
49032;DHT22;63443;48.366;10.876;2022-09-27T00:42:05;12.60;94.40
49032;DHT22;63443;48.366;10.876;2022-09-27T00:47:02;12.60;95.00
49032;DHT22;63443;48.366;10.876;2022-09-27T00:49:42;12.60;95.20
49032;DHT22;63443;48.366;10.876;2022-09-27T00:52:11;12.60;95.30
49032;DHT22;63443;48.366;10.876;2022-09-27T00:54:39;12.50;95.60
49032;DHT22;63443;48.366;10.876;2022-09-27T00:57:07;12.40;96.00
49032;DHT22;63443;48.366;10.876;2022-09-27T00:59:37;12.40;96.20
49032;DHT22;63443;48.366;10.876;2022-09-27T01:02:04;12.40;96.60
49032;DHT22;63443;48.366;10.876;2022-09-27T01:04:33;12.30;97.00
49032;DHT22;63443;48.366;10.876;2022-09-27T01:07:01;12.20;97.30
49032;DHT22;63443;48.366;10.876;2022-09-27T01:09:27;12.20;97.50
49032;DHT22;63443;48.366;10.876;2022-09-27T01:12:00;12.10;97.60
49032;DHT22;63443;48.366;10.876;2022-09-27T01:33:55;11.60;99.60
49032;DHT22;63443;48.366;10.876;2022-09-27T01:36:30;11.50;99.90
49032;DHT22;63443;48.366;10.876;2022-09-27T01:39:27;11.40;99.90
49032;DHT22;63443;48.366;10.876;2022-09-27T01:47:15;11.30;99.90
49032;DHT22;63443;48.366;10.876;2022-09-27T01:52:14;11.30;99.90
49032;DHT22;63443;48.366;10.876;2022-09-27T01:54:44;11.30;99.90
49032;DHT22;63443;48.366;10.876;2022-09-27T01:57:16;11.40;99.90
49032;DHT22;63443;48.366;10.876;2022-09-27T01:59:50;11.40;99.90
49032;DHT22;63443;48.366;10.876;2022-09-27T02:02:21;11.30;99.90
49032;DHT22;63443;48.366;10.876;2022-09-27T02:04:51;11.30;99.90
49032;DHT22;63443;48.366;10.876;2022-09-27T02:07:23;11.20;99.90
49032;DHT22;63443;48.366;10.876;2022-09-27T02:09:55;11.20;99.90
49032;DHT22;63443;48.366;10.876;2022-09-27T02:12:27;11.20;99.90
49032;DHT22;63443;48.366;10.876;2022-09-27T02:15:03;11.10;99.90
49032;DHT22;63443;48.366;10.876;2022-09-27T02:23:33;11.00;99.90
49032;DHT22;63443;48.366;10.876;2022-09-27T02:28:44;10.90;99.90
49032;DHT22;63443;48.366;10.876;2022-09-27T02:31:12;10.90;99.90
49032;DHT22;63443;48.366;10.876;2022-09-27T02:34:00;10.90;99.90
49032;DHT22;63443;48.366;10.876;2022-09-27T02:36:27;10.90;99.90
49032;DHT22;63443;48.366;10.876;2022-09-27T02:38:53;10.90;99.90
49032;DHT22;63443;48.366;10.876;2022-09-27T02:41:21;10.90;99.90
49032;DHT22;63443;48.366;10.876;2022-09-27T02:43:50;10.80;99.90
49032;DHT22;63443;48.366;10.876;2022-09-27T02:55:29;10.80;99.90
49032;DHT22;63443;48.366;10.876;2022-09-27T02:58:16;10.80;99.90
49032;DHT22;63443;48.366;10.876;2022-09-27T03:01:01;10.80;99.90
49032;DHT22;63443;48.366;10.876;2022-09-27T03:03:58;10.80;99.90
49032;DHT22;63443;48.366;10.876;2022-09-27T03:06:25;10.80;99.90
49032;DHT22;63443;48.366;10.876;2022-09-27T03:08:51;10.80;99.90
49032;DHT22;63443;48.366;10.876;2022-09-27T03:11:17;10.80;99.90
49032;DHT22;63443;48.366;10.876;2022-09-27T03:13:43;10.80;99.90
49032;DHT22;63443;48.366;10.876;2022-09-27T03:16:09;10.80;99.90
49032;DHT22;63443;48.366;10.876;2022-09-27T03:18:35;10.90;99.90
49032;DHT22;63443;48.366;10.876;2022-09-27T03:21:00;10.90;99.90
49032;DHT22;63443;48.366;10.876;2022-09-27T03:23:26;10.90;99.90
49032;DHT22;63443;48.366;10.876;2022-09-27T03:25:52;10.90;99.90
49032;DHT22;63443;48.366;10.876;2022-09-27T03:28:18;10.90;99.90
49032;DHT22;63443;48.366;10.876;2022-09-27T03:30:44;11.00;99.90
49032;DHT22;63443;48.366;10.876;2022-09-27T03:33:11;10.90;99.90
49032;DHT22;63443;48.366;10.876;2022-09-27T03:35:36;10.90;99.90
49032;DHT22;63443;48.366;10.876;2022-09-27T03:38:02;10.90;99.90
49032;DHT22;63443;48.366;10.876;2022-09-27T03:40:28;10.80;99.90
49032;DHT22;63443;48.366;10.876;2022-09-27T03:42:54;10.90;99.90
49032;DHT22;63443;48.366;10.876;2022-09-27T03:45:20;10.80;99.90
49032;DHT22;63443;48.366;10.876;2022-09-27T03:47:45;10.80;99.90
49032;DHT22;63443;48.366;10.876;2022-09-27T03:50:12;10.80;99.90
49032;DHT22;63443;48.366;10.876;2022-09-27T03:52:38;10.80;99.90
49032;DHT22;63443;48.366;10.876;2022-09-27T03:55:04;10.80;99.90
49032;DHT22;63443;48.366;10.876;2022-09-27T03:57:30;10.80;99.90
49032;DHT22;63443;48.366;10.876;2022-09-27T03:59:56;10.80;99.90
49032;DHT22;63443;48.366;10.876;2022-09-27T04:02:24;10.80;99.90
49032;DHT22;63443;48.366;10.876;2022-09-27T04:04:50;10.80;99.90
49032;DHT22;63443;48.366;10.876;2022-09-27T04:07:15;10.90;99.90
49032;DHT22;63443;48.366;10.876;2022-09-27T04:09:42;10.80;99.90
49032;DHT22;63443;48.366;10.876;2022-09-27T04:12:08;10.80;99.90
49032;DHT22;63443;48.366;10.876;2022-09-27T04:14:34;10.80;99.90
49032;DHT22;63443;48.366;10.876;2022-09-27T04:17:00;10.80;99.90
49032;DHT22;63443;48.366;10.876;2022-09-27T04:19:25;10.80;99.90
49032;DHT22;63443;48.366;10.876;2022-09-27T04:21:51;10.80;99.90
49032;DHT22;63443;48.366;10.876;2022-09-27T04:24:16;10.80;99.90
49032;DHT22;63443;48.366;10.876;2022-09-27T04:26:42;10.80;99.90
49032;DHT22;63443;48.366;10.876;2022-09-27T04:29:07;10.80;99.90
49032;DHT22;63443;48.366;10.876;2022-09-27T04:31:34;10.80;99.90
49032;DHT22;63443;48.366;10.876;2022-09-27T04:34:01;10.80;99.90
49032;DHT22;63443;48.366;10.876;2022-09-27T04:36:27;10.80;99.90
49032;DHT22;63443;48.366;10.876;2022-09-27T04:39:03;10.90;99.90
49032;DHT22;63443;48.366;10.876;2022-09-27T04:41:29;10.80;99.90
49032;DHT22;63443;48.366;10.876;2022-09-27T04:43:55;10.90;99.90
49032;DHT22;63443;48.366;10.876;2022-09-27T04:46:21;10.90;99.90
49032;DHT22;63443;48.366;10.876;2022-09-27T04:48:47;10.90;99.90
49032;DHT22;63443;48.366;10.876;2022-09-27T04:51:15;10.90;99.90
49032;DHT22;63443;48.366;10.876;2022-09-27T04:53:44;10.90;99.90
49032;DHT22;63443;48.366;10.876;2022-09-27T04:56:11;10.90;99.90
49032;DHT22;63443;48.366;10.876;2022-09-27T04:58:37;10.90;99.90
49032;DHT22;63443;48.366;10.876;2022-09-27T05:01:03;11.00;99.90
49032;DHT22;63443;48.366;10.876;2022-09-27T05:03:29;10.90;99.90
49032;DHT22;63443;48.366;10.876;2022-09-27T05:05:55;10.90;99.90
49032;DHT22;63443;48.366;10.876;2022-09-27T05:08:21;10.90;99.90
49032;DHT22;63443;48.366;10.876;2022-09-27T05:10:47;10.80;99.90
49032;DHT22;63443;48.366;10.876;2022-09-27T05:13:13;10.80;99.90
49032;DHT22;63443;48.366;10.876;2022-09-27T05:15:40;10.80;99.90
49032;DHT22;63443;48.366;10.876;2022-09-27T05:18:06;10.80;99.90
49032;DHT22;63443;48.366;10.876;2022-09-27T05:20:33;10.80;99.90
49032;DHT22;63443;48.366;10.876;2022-09-27T05:22:59;10.80;99.90
49032;DHT22;63443;48.366;10.876;2022-09-27T05:25:24;10.80;99.90
49032;DHT22;63443;48.366;10.876;2022-09-27T05:27:50;10.70;99.90
49032;DHT22;63443;48.366;10.876;2022-09-27T05:30:16;10.70;99.90
49032;DHT22;63443;48.366;10.876;2022-09-27T05:32:42;10.80;99.90
49032;DHT22;63443;48.366;10.876;2022-09-27T05:35:09;10.80;99.90
49032;DHT22;63443;48.366;10.876;2022-09-27T05:37:35;10.70;99.90
49032;DHT22;63443;48.366;10.876;2022-09-27T05:40:01;10.70;99.90
49032;DHT22;63443;48.366;10.876;2022-09-27T05:42:26;10.60;99.90
49032;DHT22;63443;48.366;10.876;2022-09-27T05:44:52;10.70;99.90
49032;DHT22;63443;48.366;10.876;2022-09-27T05:47:18;10.60;99.90
49032;DHT22;63443;48.366;10.876;2022-09-27T05:49:43;10.60;99.90
49032;DHT22;63443;48.366;10.876;2022-09-27T05:52:09;10.60;99.90
49032;DHT22;63443;48.366;10.876;2022-09-27T05:54:35;10.50;99.90
49032;DHT22;63443;48.366;10.876;2022-09-27T05:57:00;10.50;99.90
49032;DHT22;63443;48.366;10.876;2022-09-27T05:59:26;10.50;99.90
49032;DHT22;63443;48.366;10.876;2022-09-27T06:01:52;10.50;99.90
49032;DHT22;63443;48.366;10.876;2022-09-27T06:04:19;10.50;99.90
49032;DHT22;63443;48.366;10.876;2022-09-27T06:06:45;10.50;99.90
49032;DHT22;63443;48.366;10.876;2022-09-27T06:09:12;10.50;99.90
49032;DHT22;63443;48.366;10.876;2022-09-27T06:11:38;10.60;99.90
49032;DHT22;63443;48.366;10.876;2022-09-27T06:14:03;10.50;99.90
49032;DHT22;63443;48.366;10.876;2022-09-27T06:16:29;10.50;99.90
49032;DHT22;63443;48.366;10.876;2022-09-27T06:18:55;10.60;99.90
49032;DHT22;63443;48.366;10.876;2022-09-27T06:21:21;10.50;99.90
49032;DHT22;63443;48.366;10.876;2022-09-27T06:23:47;10.60;99.90
49032;DHT22;63443;48.366;10.876;2022-09-27T06:26:12;10.70;99.90
49032;DHT22;63443;48.366;10.876;2022-09-27T06:28:38;10.70;99.60
49032;DHT22;63443;48.366;10.876;2022-09-27T06:31:05;10.80;99.60
49032;DHT22;63443;48.366;10.876;2022-09-27T06:33:33;10.90;99.80
49032;DHT22;63443;48.366;10.876;2022-09-27T06:36:03;10.90;99.40
49032;DHT22;63443;48.366;10.876;2022-09-27T06:38:29;11.00;99.40
49032;DHT22;63443;48.366;10.876;2022-09-27T06:40:54;11.00;99.50
49032;DHT22;63443;48.366;10.876;2022-09-27T06:43:22;11.10;99.70
49032;DHT22;63443;48.366;10.876;2022-09-27T06:45:47;11.20;99.50
49032;DHT22;63443;48.366;10.876;2022-09-27T06:48:14;11.30;99.50
49032;DHT22;63443;48.366;10.876;2022-09-27T06:50:43;11.20;99.60
49032;DHT22;63443;48.366;10.876;2022-09-27T06:53:10;11.30;99.70
49032;DHT22;63443;48.366;10.876;2022-09-27T06:55:36;11.30;99.70
49032;DHT22;63443;48.366;10.876;2022-09-27T06:58:02;11.40;99.80
49032;DHT22;63443;48.366;10.876;2022-09-27T07:00:51;11.30;99.80
49032;DHT22;63443;48.366;10.876;2022-09-27T07:03:18;11.30;99.70
49032;DHT22;63443;48.366;10.876;2022-09-27T07:05:53;11.40;99.80
49032;DHT22;63443;48.366;10.876;2022-09-27T07:08:20;11.40;99.90
49032;DHT22;63443;48.366;10.876;2022-09-27T07:10:45;11.40;99.60
49032;DHT22;63443;48.366;10.876;2022-09-27T07:13:11;11.30;99.40
49032;DHT22;63443;48.366;10.876;2022-09-27T07:15:39;11.20;98.60
49032;DHT22;63443;48.366;10.876;2022-09-27T07:18:06;11.10;99.40
49032;DHT22;63443;48.366;10.876;2022-09-27T07:20:34;11.00;99.60
49032;DHT22;63443;48.366;10.876;2022-09-27T07:23:04;11.00;99.90
49032;DHT22;63443;48.366;10.876;2022-09-27T07:25:30;10.90;99.50
49032;DHT22;63443;48.366;10.876;2022-09-27T07:28:05;10.80;99.90
49032;DHT22;63443;48.366;10.876;2022-09-27T07:30:31;10.70;99.80
49032;DHT22;63443;48.366;10.876;2022-09-27T07:32:58;10.70;99.60
49032;DHT22;63443;48.366;10.876;2022-09-27T07:35:24;10.70;99.50
49032;DHT22;63443;48.366;10.876;2022-09-27T07:37:50;10.70;99.50
49032;DHT22;63443;48.366;10.876;2022-09-27T07:40:17;10.70;99.40
49032;DHT22;63443;48.366;10.876;2022-09-27T07:42:44;10.70;99.00
49032;DHT22;63443;48.366;10.876;2022-09-27T07:45:10;10.60;99.20
49032;DHT22;63443;48.366;10.876;2022-09-27T07:47:38;10.60;98.90
49032;DHT22;63443;48.366;10.876;2022-09-27T07:50:05;10.60;98.80
49032;DHT22;63443;48.366;10.876;2022-09-27T07:52:38;10.60;98.90
49032;DHT22;63443;48.366;10.876;2022-09-27T07:55:05;10.70;98.70
49032;DHT22;63443;48.366;10.876;2022-09-27T07:57:30;10.90;98.10
49032;DHT22;63443;48.366;10.876;2022-09-27T07:59:56;11.00;97.90
49032;DHT22;63443;48.366;10.876;2022-09-27T08:02:21;11.10;97.90
49032;DHT22;63443;48.366;10.876;2022-09-27T08:04:48;11.20;97.30
49032;DHT22;63443;48.366;10.876;2022-09-27T08:07:14;11.20;97.00
49032;DHT22;63443;48.366;10.876;2022-09-27T08:09:40;11.10;96.90
49032;DHT22;63443;48.366;10.876;2022-09-27T08:12:05;10.90;97.30
49032;DHT22;63443;48.366;10.876;2022-09-27T08:14:31;10.90;97.70
49032;DHT22;63443;48.366;10.876;2022-09-27T08:16:56;10.90;98.20
49032;DHT22;63443;48.366;10.876;2022-09-27T08:19:22;10.90;97.70
49032;DHT22;63443;48.366;10.876;2022-09-27T08:21:50;10.80;97.60
49032;DHT22;63443;48.366;10.876;2022-09-27T08:24:15;10.80;97.50
49032;DHT22;63443;48.366;10.876;2022-09-27T08:26:41;10.70;97.90
49032;DHT22;63443;48.366;10.876;2022-09-27T08:29:06;10.70;97.80
49032;DHT22;63443;48.366;10.876;2022-09-27T08:31:32;10.70;97.60
49032;DHT22;63443;48.366;10.876;2022-09-27T08:33:58;10.70;98.20
49032;DHT22;63443;48.366;10.876;2022-09-27T08:36:23;10.60;97.80
49032;DHT22;63443;48.366;10.876;2022-09-27T08:38:52;10.70;97.90
49032;DHT22;63443;48.366;10.876;2022-09-27T08:46:57;10.90;97.30
49032;DHT22;63443;48.366;10.876;2022-09-27T08:49:34;10.90;97.30
49032;DHT22;63443;48.366;10.876;2022-09-27T08:52:04;11.10;97.00
49032;DHT22;63443;48.366;10.876;2022-09-27T08:54:32;11.20;96.70
49032;DHT22;63443;48.366;10.876;2022-09-27T08:57:03;11.30;96.30
49032;DHT22;63443;48.366;10.876;2022-09-27T08:59:34;11.40;95.60
49032;DHT22;63443;48.366;10.876;2022-09-27T09:02:04;11.50;95.90
49032;DHT22;63443;48.366;10.876;2022-09-27T09:04:34;11.70;95.40
49032;DHT22;63443;48.366;10.876;2022-09-27T09:12:54;11.90;94.70
49032;DHT22;63443;48.366;10.876;2022-09-27T09:15:56;12.00;94.20
49032;DHT22;63443;48.366;10.876;2022-09-27T09:30:02;12.20;92.10
49032;DHT22;63443;48.366;10.876;2022-09-27T09:38:44;12.20;92.50
49032;DHT22;63443;48.366;10.876;2022-09-27T09:41:23;12.10;92.10
49032;DHT22;63443;48.366;10.876;2022-09-27T09:43:56;12.30;92.50
49032;DHT22;63443;48.366;10.876;2022-09-27T09:46:38;12.50;92.00
49032;DHT22;63443;48.366;10.876;2022-09-27T09:51:55;12.60;91.10
49032;DHT22;63443;48.366;10.876;2022-09-27T09:54:30;12.60;91.80
49032;DHT22;63443;48.366;10.876;2022-09-27T09:57:13;12.60;91.60
49032;DHT22;63443;48.366;10.876;2022-09-27T09:59:49;12.80;91.70
49032;DHT22;63443;48.366;10.876;2022-09-27T10:02:36;12.90;91.20
49032;DHT22;63443;48.366;10.876;2022-09-27T10:05:03;12.90;90.60
49032;DHT22;63443;48.366;10.876;2022-09-27T10:07:31;12.90;88.20
49032;DHT22;63443;48.366;10.876;2022-09-27T10:10:02;12.80;88.00
49032;DHT22;63443;48.366;10.876;2022-09-27T10:12:29;12.80;88.80
49032;DHT22;63443;48.366;10.876;2022-09-27T10:14:57;12.60;89.80
49032;DHT22;63443;48.366;10.876;2022-09-27T10:17:27;12.70;90.00
49032;DHT22;63443;48.366;10.876;2022-09-27T10:19:57;12.70;90.30
49032;DHT22;63443;48.366;10.876;2022-09-27T10:22:28;12.70;90.00
49032;DHT22;63443;48.366;10.876;2022-09-27T10:25:01;12.70;90.20
49032;DHT22;63443;48.366;10.876;2022-09-27T10:27:40;12.70;90.00
49032;DHT22;63443;48.366;10.876;2022-09-27T10:30:21;12.70;89.50
49032;DHT22;63443;48.366;10.876;2022-09-27T10:32:51;12.50;89.20
49032;DHT22;63443;48.366;10.876;2022-09-27T10:37:45;12.70;88.40
49032;DHT22;63443;48.366;10.876;2022-09-27T10:40:32;12.80;86.80
49032;DHT22;63443;48.366;10.876;2022-09-27T10:42:58;12.90;86.70
49032;DHT22;63443;48.366;10.876;2022-09-27T10:45:31;12.70;85.60
49032;DHT22;63443;48.366;10.876;2022-09-27T10:47:59;12.80;87.30
49032;DHT22;63443;48.366;10.876;2022-09-27T10:50:31;13.00;87.20
49032;DHT22;63443;48.366;10.876;2022-09-27T10:53:13;13.00;86.50
49032;DHT22;63443;48.366;10.876;2022-09-27T10:55:39;13.00;87.10
49032;DHT22;63443;48.366;10.876;2022-09-27T10:58:18;13.00;86.00
49032;DHT22;63443;48.366;10.876;2022-09-27T11:00:54;12.80;85.30
49032;DHT22;63443;48.366;10.876;2022-09-27T11:03:19;12.60;86.70
49032;DHT22;63443;48.366;10.876;2022-09-27T11:05:45;12.50;88.40
49032;DHT22;63443;48.366;10.876;2022-09-27T11:08:23;12.50;90.00
49032;DHT22;63443;48.366;10.876;2022-09-27T11:13:33;12.10;91.30
49032;DHT22;63443;48.366;10.876;2022-09-27T11:18:53;11.40;95.90
49032;DHT22;63443;48.366;10.876;2022-09-27T11:21:43;11.20;97.30
49032;DHT22;63443;48.366;10.876;2022-09-27T11:27:27;11.40;97.30
49032;DHT22;63443;48.366;10.876;2022-09-27T11:32:54;12.00;97.10
49032;DHT22;63443;48.366;10.876;2022-09-27T11:35:44;12.30;96.30
49032;DHT22;63443;48.366;10.876;2022-09-27T11:38:40;12.20;95.10
49032;DHT22;63443;48.366;10.876;2022-09-27T11:43:54;12.40;94.90
49032;DHT22;63443;48.366;10.876;2022-09-27T11:46:38;12.60;94.70
49032;DHT22;63443;48.366;10.876;2022-09-27T11:49:36;12.60;93.20
49032;DHT22;63443;48.366;10.876;2022-09-27T11:58:25;13.00;93.00
49032;DHT22;63443;48.366;10.876;2022-09-27T12:01:00;13.40;91.40
49032;DHT22;63443;48.366;10.876;2022-09-27T12:06:15;13.80;89.10
49032;DHT22;63443;48.366;10.876;2022-09-27T12:11:40;14.40;90.00
49032;DHT22;63443;48.366;10.876;2022-09-27T12:14:26;14.20;89.00
49032;DHT22;63443;48.366;10.876;2022-09-27T12:16:56;14.50;89.00
49032;DHT22;63443;48.366;10.876;2022-09-27T12:19:34;15.10;88.60
49032;DHT22;63443;48.366;10.876;2022-09-27T12:22:04;15.50;84.90
49032;DHT22;63443;48.366;10.876;2022-09-27T12:24:31;15.30;85.60
49032;DHT22;63443;48.366;10.876;2022-09-27T12:27:09;15.10;86.00
49032;DHT22;63443;48.366;10.876;2022-09-27T12:29:39;14.90;86.40
49032;DHT22;63443;48.366;10.876;2022-09-27T12:35:27;14.30;90.20
49032;DHT22;63443;48.366;10.876;2022-09-27T12:37:58;14.10;90.80
49032;DHT22;63443;48.366;10.876;2022-09-27T12:40:29;13.90;90.90
49032;DHT22;63443;48.366;10.876;2022-09-27T12:45:48;13.70;91.20
49032;DHT22;63443;48.366;10.876;2022-09-27T12:53:45;14.30;91.20
49032;DHT22;63443;48.366;10.876;2022-09-27T12:59:16;17.00;84.80
49032;DHT22;63443;48.366;10.876;2022-09-27T13:13:19;25.40;52.90
49032;DHT22;63443;48.366;10.876;2022-09-27T13:15:47;26.70;52.10
49032;DHT22;63443;48.366;10.876;2022-09-27T13:18:50;28.30;49.70
49032;DHT22;63443;48.366;10.876;2022-09-27T13:27:12;26.60;45.50
49032;DHT22;63443;48.366;10.876;2022-09-27T13:29:51;26.30;48.00
49032;DHT22;63443;48.366;10.876;2022-09-27T13:32:18;23.40;50.10
49032;DHT22;63443;48.366;10.876;2022-09-27T13:34:51;22.50;52.50
49032;DHT22;63443;48.366;10.876;2022-09-27T13:37:45;21.00;53.90
49032;DHT22;63443;48.366;10.876;2022-09-27T13:42:51;17.50;61.30
49032;DHT22;63443;48.366;10.876;2022-09-27T13:45:26;17.60;61.50
49032;DHT22;63443;48.366;10.876;2022-09-27T13:47:56;18.00;61.40
49032;DHT22;63443;48.366;10.876;2022-09-27T13:50:45;16.90;63.40
49032;DHT22;63443;48.366;10.876;2022-09-27T13:53:32;16.60;65.20
49032;DHT22;63443;48.366;10.876;2022-09-27T13:55:59;16.00;66.40
49032;DHT22;63443;48.366;10.876;2022-09-27T13:59:16;15.50;68.70
49032;DHT22;63443;48.366;10.876;2022-09-27T14:01:40;15.00;70.40
49032;DHT22;63443;48.366;10.876;2022-09-27T14:04:17;14.60;72.40
49032;DHT22;63443;48.366;10.876;2022-09-27T14:06:47;14.30;73.40
49032;DHT22;63443;48.366;10.876;2022-09-27T14:09:20;14.10;75.10
49032;DHT22;63443;48.366;10.876;2022-09-27T14:11:51;13.90;76.40
49032;DHT22;63443;48.366;10.876;2022-09-27T14:14:21;13.70;77.70
49032;DHT22;63443;48.366;10.876;2022-09-27T14:16:48;13.40;78.80
49032;DHT22;63443;48.366;10.876;2022-09-27T14:19:19;13.30;82.20
49032;DHT22;63443;48.366;10.876;2022-09-27T14:21:46;13.20;84.00
49032;DHT22;63443;48.366;10.876;2022-09-27T14:24:28;13.00;84.40
49032;DHT22;63443;48.366;10.876;2022-09-27T14:29:49;12.80;87.60
49032;DHT22;63443;48.366;10.876;2022-09-27T14:32:17;12.80;88.20
49032;DHT22;63443;48.366;10.876;2022-09-27T14:34:43;12.60;89.10
49032;DHT22;63443;48.366;10.876;2022-09-27T14:37:24;12.60;90.00
49032;DHT22;63443;48.366;10.876;2022-09-27T14:40:01;12.50;90.20
49032;DHT22;63443;48.366;10.876;2022-09-27T14:42:33;12.60;90.30
49032;DHT22;63443;48.366;10.876;2022-09-27T14:45:26;12.50;90.50
49032;DHT22;63443;48.366;10.876;2022-09-27T14:47:52;12.50;91.00
49032;DHT22;63443;48.366;10.876;2022-09-27T14:52:49;12.40;92.40
49032;DHT22;63443;48.366;10.876;2022-09-27T14:55:21;12.20;93.40
49032;DHT22;63443;48.366;10.876;2022-09-27T14:57:58;12.10;94.20
49032;DHT22;63443;48.366;10.876;2022-09-27T15:00:27;12.00;95.50
49032;DHT22;63443;48.366;10.876;2022-09-27T15:02:58;11.70;96.10
49032;DHT22;63443;48.366;10.876;2022-09-27T15:05:27;11.60;97.30
49032;DHT22;63443;48.366;10.876;2022-09-27T15:07:54;11.40;97.40
49032;DHT22;63443;48.366;10.876;2022-09-27T15:10:25;11.20;98.70
49032;DHT22;63443;48.366;10.876;2022-09-27T15:12:53;11.10;99.80
49032;DHT22;63443;48.366;10.876;2022-09-27T15:15:24;11.20;99.70
49032;DHT22;63443;48.366;10.876;2022-09-27T15:17:50;11.50;98.70
49032;DHT22;63443;48.366;10.876;2022-09-27T15:22:45;11.70;97.00
49032;DHT22;63443;48.366;10.876;2022-09-27T15:25:32;11.60;96.80
49032;DHT22;63443;48.366;10.876;2022-09-27T15:30:39;11.40;96.80
49032;DHT22;63443;48.366;10.876;2022-09-27T15:33:18;11.30;96.20
49032;DHT22;63443;48.366;10.876;2022-09-27T15:35:55;11.10;96.70
49032;DHT22;63443;48.366;10.876;2022-09-27T15:43:32;10.80;97.60
49032;DHT22;63443;48.366;10.876;2022-09-27T15:46:03;10.90;97.90
49032;DHT22;63443;48.366;10.876;2022-09-27T15:48:33;10.80;97.70
49032;DHT22;63443;48.366;10.876;2022-09-27T15:51:01;10.90;97.80
49032;DHT22;63443;48.366;10.876;2022-09-27T15:55:59;10.90;97.90
49032;DHT22;63443;48.366;10.876;2022-09-27T15:58:25;10.80;98.30
49032;DHT22;63443;48.366;10.876;2022-09-27T16:00:57;10.80;98.30
49032;DHT22;63443;48.366;10.876;2022-09-27T16:03:24;10.70;99.10
49032;DHT22;63443;48.366;10.876;2022-09-27T16:05:50;10.70;99.20
49032;DHT22;63443;48.366;10.876;2022-09-27T16:08:16;10.60;99.60
49032;DHT22;63443;48.366;10.876;2022-09-27T16:10:44;10.60;99.90
49032;DHT22;63443;48.366;10.876;2022-09-27T16:13:11;10.60;99.90
49032;DHT22;63443;48.366;10.876;2022-09-27T16:15:36;10.50;99.90
49032;DHT22;63443;48.366;10.876;2022-09-27T16:18:02;10.50;99.90
49032;DHT22;63443;48.366;10.876;2022-09-27T16:20:28;10.50;99.90
49032;DHT22;63443;48.366;10.876;2022-09-27T16:22:56;10.60;99.90
49032;DHT22;63443;48.366;10.876;2022-09-27T16:25:22;10.60;99.90
49032;DHT22;63443;48.366;10.876;2022-09-27T16:27:48;10.50;99.90
49032;DHT22;63443;48.366;10.876;2022-09-27T16:30:13;10.60;99.90
49032;DHT22;63443;48.366;10.876;2022-09-27T16:32:41;10.60;99.90
49032;DHT22;63443;48.366;10.876;2022-09-27T16:35:07;10.60;99.90
49032;DHT22;63443;48.366;10.876;2022-09-27T16:37:33;10.40;99.90
49032;DHT22;63443;48.366;10.876;2022-09-27T16:39:59;10.40;99.90
49032;DHT22;63443;48.366;10.876;2022-09-27T16:42:24;10.50;99.90
49032;DHT22;63443;48.366;10.876;2022-09-27T16:44:52;10.50;99.90
49032;DHT22;63443;48.366;10.876;2022-09-27T16:47:18;10.50;99.90
49032;DHT22;63443;48.366;10.876;2022-09-27T16:49:44;10.40;99.90
49032;DHT22;63443;48.366;10.876;2022-09-27T16:52:29;10.40;99.90
49032;DHT22;63443;48.366;10.876;2022-09-27T16:54:55;10.40;99.90
49032;DHT22;63443;48.366;10.876;2022-09-27T16:57:21;10.30;99.90
49032;DHT22;63443;48.366;10.876;2022-09-27T16:59:46;10.20;99.90
49032;DHT22;63443;48.366;10.876;2022-09-27T17:02:12;10.10;99.90
49032;DHT22;63443;48.366;10.876;2022-09-27T17:04:38;10.10;99.90
49032;DHT22;63443;48.366;10.876;2022-09-27T17:07:03;9.90;99.90
49032;DHT22;63443;48.366;10.876;2022-09-27T17:09:29;9.90;99.90
49032;DHT22;63443;48.366;10.876;2022-09-27T17:11:54;10.00;99.90
49032;DHT22;63443;48.366;10.876;2022-09-27T17:14:20;9.90;99.90
49032;DHT22;63443;48.366;10.876;2022-09-27T17:16:47;9.80;99.90
49032;DHT22;63443;48.366;10.876;2022-09-27T17:19:14;9.70;99.90
49032;DHT22;63443;48.366;10.876;2022-09-27T17:21:40;9.60;99.90
49032;DHT22;63443;48.366;10.876;2022-09-27T17:24:08;9.60;99.90
49032;DHT22;63443;48.366;10.876;2022-09-27T17:26:34;9.60;99.90
49032;DHT22;63443;48.366;10.876;2022-09-27T17:29:00;9.50;99.90
49032;DHT22;63443;48.366;10.876;2022-09-27T17:31:27;9.60;99.90
49032;DHT22;63443;48.366;10.876;2022-09-27T17:33:53;9.60;99.90
49032;DHT22;63443;48.366;10.876;2022-09-27T17:36:21;9.60;99.90
49032;DHT22;63443;48.366;10.876;2022-09-27T17:38:48;9.50;99.90
49032;DHT22;63443;48.366;10.876;2022-09-27T17:41:20;9.60;99.90
49032;DHT22;63443;48.366;10.876;2022-09-27T17:43:51;9.50;99.90
49032;DHT22;63443;48.366;10.876;2022-09-27T17:46:19;9.60;99.90
49032;DHT22;63443;48.366;10.876;2022-09-27T17:48:45;9.50;99.90
49032;DHT22;63443;48.366;10.876;2022-09-27T17:51:31;9.50;99.90
49032;DHT22;63443;48.366;10.876;2022-09-27T17:53:57;9.60;99.90
49032;DHT22;63443;48.366;10.876;2022-09-27T17:56:23;9.60;99.90
49032;DHT22;63443;48.366;10.876;2022-09-27T17:58:51;9.60;99.90
49032;DHT22;63443;48.366;10.876;2022-09-27T18:01:18;9.50;99.90
49032;DHT22;63443;48.366;10.876;2022-09-27T18:03:45;9.60;99.90
49032;DHT22;63443;48.366;10.876;2022-09-27T18:06:13;9.50;99.90
49032;DHT22;63443;48.366;10.876;2022-09-27T18:08:41;9.60;99.90
49032;DHT22;63443;48.366;10.876;2022-09-27T18:11:17;9.60;99.90
49032;DHT22;63443;48.366;10.876;2022-09-27T18:13:43;9.50;99.90